sensor_id;sensor_type;location;lat;lon;timestamp;P1;durP1;ratioP1;P2;durP2;ratioP2
24337;SDS011;12457;50.832;4.346;2024-01-15T00:01:21;41.47;;;18.92;;
24337;SDS011;12457;50.832;4.346;2024-01-15T00:03:48;41.90;;;19.65;;
24337;SDS011;12457;50.832;4.346;2024-01-15T00:06:14;39.55;;;19.63;;
24337;SDS011;12457;50.832;4.346;2024-01-15T00:08:39;38.92;;;19.58;;
24337;SDS011;12457;50.832;4.346;2024-01-15T00:11:05;44.80;;;20.17;;
24337;SDS011;12457;50.832;4.346;2024-01-15T00:13:31;42.58;;;18.58;;
24337;SDS011;12457;50.832;4.346;2024-01-15T00:15:56;37.38;;;18.08;;
24337;SDS011;12457;50.832;4.346;2024-01-15T00:18:22;42.35;;;17.45;;
24337;SDS011;12457;50.832;4.346;2024-01-15T00:23:53;37.80;;;16.48;;
24337;SDS011;12457;50.832;4.346;2024-01-15T00:26:19;34.42;;;16.30;;
24337;SDS011;12457;50.832;4.346;2024-01-15T00:28:44;30.95;;;15.48;;
24337;SDS011;12457;50.832;4.346;2024-01-15T00:31:11;35.88;;;15.93;;
24337;SDS011;12457;50.832;4.346;2024-01-15T00:33:37;35.53;;;15.27;;
24337;SDS011;12457;50.832;4.346;2024-01-15T00:39:25;33.63;;;15.55;;
24337;SDS011;12457;50.832;4.346;2024-01-15T00:41:51;32.53;;;14.85;;
24337;SDS011;12457;50.832;4.346;2024-01-15T00:44:16;33.85;;;15.70;;
24337;SDS011;12457;50.832;4.346;2024-01-15T00:46:44;27.70;;;14.15;;
24337;SDS011;12457;50.832;4.346;2024-01-15T00:52:07;28.58;;;13.43;;
24337;SDS011;12457;50.832;4.346;2024-01-15T00:54:33;29.33;;;13.63;;
24337;SDS011;12457;50.832;4.346;2024-01-15T00:56:58;25.02;;;12.73;;
24337;SDS011;12457;50.832;4.346;2024-01-15T00:59:24;26.75;;;12.38;;
24337;SDS011;12457;50.832;4.346;2024-01-15T01:01:50;25.13;;;12.45;;
24337;SDS011;12457;50.832;4.346;2024-01-15T01:04:28;22.48;;;11.20;;
24337;SDS011;12457;50.832;4.346;2024-01-15T01:06:54;20.63;;;10.73;;
24337;SDS011;12457;50.832;4.346;2024-01-15T01:09:19;22.02;;;10.73;;
24337;SDS011;12457;50.832;4.346;2024-01-15T01:11:45;18.02;;;10.05;;
24337;SDS011;12457;50.832;4.346;2024-01-15T01:14:12;17.25;;;10.13;;
24337;SDS011;12457;50.832;4.346;2024-01-15T01:16:38;22.30;;;10.27;;
24337;SDS011;12457;50.832;4.346;2024-01-15T01:19:06;17.00;;;9.63;;
24337;SDS011;12457;50.832;4.346;2024-01-15T01:21:50;16.90;;;9.00;;
24337;SDS011;12457;50.832;4.346;2024-01-15T01:24:16;16.98;;;9.65;;
24337;SDS011;12457;50.832;4.346;2024-01-15T01:26:42;17.92;;;9.25;;
24337;SDS011;12457;50.832;4.346;2024-01-15T01:29:07;20.92;;;9.02;;
24337;SDS011;12457;50.832;4.346;2024-01-15T01:31:36;15.85;;;9.77;;
24337;SDS011;12457;50.832;4.346;2024-01-15T01:34:07;19.60;;;9.40;;
24337;SDS011;12457;50.832;4.346;2024-01-15T01:36:34;17.00;;;8.95;;
24337;SDS011;12457;50.832;4.346;2024-01-15T01:38:59;15.07;;;8.68;;
24337;SDS011;12457;50.832;4.346;2024-01-15T01:41:26;13.50;;;8.27;;
24337;SDS011;12457;50.832;4.346;2024-01-15T01:43:51;14.45;;;8.50;;
24337;SDS011;12457;50.832;4.346;2024-01-15T01:46:17;20.38;;;8.82;;
24337;SDS011;12457;50.832;4.346;2024-01-15T01:48:44;16.83;;;8.77;;
24337;SDS011;12457;50.832;4.346;2024-01-15T01:51:10;17.48;;;8.38;;
24337;SDS011;12457;50.832;4.346;2024-01-15T01:53:37;14.57;;;7.80;;
24337;SDS011;12457;50.832;4.346;2024-01-15T01:56:03;14.40;;;7.30;;
24337;SDS011;12457;50.832;4.346;2024-01-15T01:58:31;14.02;;;7.22;;
24337;SDS011;12457;50.832;4.346;2024-01-15T02:00:58;13.80;;;7.35;;
24337;SDS011;12457;50.832;4.346;2024-01-15T02:03:25;14.07;;;6.85;;
24337;SDS011;12457;50.832;4.346;2024-01-15T02:05:52;13.25;;;6.30;;
24337;SDS011;12457;50.832;4.346;2024-01-15T02:08:19;13.73;;;6.20;;
24337;SDS011;12457;50.832;4.346;2024-01-15T02:10:45;13.63;;;6.28;;
24337;SDS011;12457;50.832;4.346;2024-01-15T02:13:10;11.00;;;5.85;;
24337;SDS011;12457;50.832;4.346;2024-01-15T02:15:36;8.98;;;5.65;;
24337;SDS011;12457;50.832;4.346;2024-01-15T02:18:03;8.60;;;5.70;;
24337;SDS011;12457;50.832;4.346;2024-01-15T02:20:35;9.15;;;5.95;;
24337;SDS011;12457;50.832;4.346;2024-01-15T02:25:41;7.80;;;5.03;;
24337;SDS011;12457;50.832;4.346;2024-01-15T02:28:09;8.52;;;4.63;;
24337;SDS011;12457;50.832;4.346;2024-01-15T02:30:39;7.50;;;4.38;;
24337;SDS011;12457;50.832;4.346;2024-01-15T02:33:06;6.80;;;4.32;;
24337;SDS011;12457;50.832;4.346;2024-01-15T02:35:33;7.30;;;5.03;;
24337;SDS011;12457;50.832;4.346;2024-01-15T02:38:01;7.95;;;5.32;;
24337;SDS011;12457;50.832;4.346;2024-01-15T02:40:29;12.02;;;6.20;;
24337;SDS011;12457;50.832;4.346;2024-01-15T02:42:54;9.73;;;6.28;;
24337;SDS011;12457;50.832;4.346;2024-01-15T02:45:21;14.45;;;7.50;;
24337;SDS011;12457;50.832;4.346;2024-01-15T02:47:48;12.80;;;7.65;;
24337;SDS011;12457;50.832;4.346;2024-01-15T02:50:15;16.35;;;8.35;;
24337;SDS011;12457;50.832;4.346;2024-01-15T02:52:41;15.40;;;8.38;;
24337;SDS011;12457;50.832;4.346;2024-01-15T02:55:07;18.35;;;8.73;;
24337;SDS011;12457;50.832;4.346;2024-01-15T02:57:33;16.38;;;8.77;;
24337;SDS011;12457;50.832;4.346;2024-01-15T02:59:59;16.98;;;9.50;;
24337;SDS011;12457;50.832;4.346;2024-01-15T03:02:25;16.90;;;9.88;;
24337;SDS011;12457;50.832;4.346;2024-01-15T03:04:50;19.63;;;10.52;;
24337;SDS011;12457;50.832;4.346;2024-01-15T03:07:18;19.95;;;11.00;;
24337;SDS011;12457;50.832;4.346;2024-01-15T03:09:45;21.83;;;11.40;;
24337;SDS011;12457;50.832;4.346;2024-01-15T03:12:11;24.63;;;11.48;;
24337;SDS011;12457;50.832;4.346;2024-01-15T03:14:37;25.20;;;12.75;;
24337;SDS011;12457;50.832;4.346;2024-01-15T03:17:03;22.58;;;11.93;;
24337;SDS011;12457;50.832;4.346;2024-01-15T03:19:29;21.13;;;11.35;;
24337;SDS011;12457;50.832;4.346;2024-01-15T03:21:56;19.75;;;11.70;;
24337;SDS011;12457;50.832;4.346;2024-01-15T03:24:22;25.92;;;12.30;;
24337;SDS011;12457;50.832;4.346;2024-01-15T03:26:48;22.52;;;11.70;;
24337;SDS011;12457;50.832;4.346;2024-01-15T03:29:13;24.02;;;11.88;;
24337;SDS011;12457;50.832;4.346;2024-01-15T03:31:39;23.75;;;12.00;;
24337;SDS011;12457;50.832;4.346;2024-01-15T03:34:05;27.60;;;12.00;;
24337;SDS011;12457;50.832;4.346;2024-01-15T03:36:32;26.15;;;12.65;;
24337;SDS011;12457;50.832;4.346;2024-01-15T03:38:58;25.40;;;14.05;;
24337;SDS011;12457;50.832;4.346;2024-01-15T03:41:24;24.95;;;13.38;;
24337;SDS011;12457;50.832;4.346;2024-01-15T03:43:49;27.48;;;13.93;;
24337;SDS011;12457;50.832;4.346;2024-01-15T03:46:15;25.65;;;14.38;;
24337;SDS011;12457;50.832;4.346;2024-01-15T03:48:41;27.88;;;13.50;;
24337;SDS011;12457;50.832;4.346;2024-01-15T03:51:07;31.75;;;15.68;;
24337;SDS011;12457;50.832;4.346;2024-01-15T03:53:33;30.73;;;14.57;;
24337;SDS011;12457;50.832;4.346;2024-01-15T03:56:03;28.40;;;14.98;;
24337;SDS011;12457;50.832;4.346;2024-01-15T03:58:29;31.90;;;15.45;;
24337;SDS011;12457;50.832;4.346;2024-01-15T04:00:54;29.05;;;15.63;;
24337;SDS011;12457;50.832;4.346;2024-01-15T04:03:20;30.05;;;15.00;;
24337;SDS011;12457;50.832;4.346;2024-01-15T04:05:46;29.13;;;15.48;;
24337;SDS011;12457;50.832;4.346;2024-01-15T04:08:12;29.50;;;15.25;;
24337;SDS011;12457;50.832;4.346;2024-01-15T04:10:37;31.02;;;15.95;;
24337;SDS011;12457;50.832;4.346;2024-01-15T04:13:03;30.58;;;15.60;;
24337;SDS011;12457;50.832;4.346;2024-01-15T04:15:29;30.45;;;15.52;;
24337;SDS011;12457;50.832;4.346;2024-01-15T04:17:54;33.75;;;16.55;;
24337;SDS011;12457;50.832;4.346;2024-01-15T04:20:20;37.33;;;15.95;;
24337;SDS011;12457;50.832;4.346;2024-01-15T04:22:47;35.17;;;16.67;;
24337;SDS011;12457;50.832;4.346;2024-01-15T04:25:13;31.73;;;15.93;;
24337;SDS011;12457;50.832;4.346;2024-01-15T04:27:39;29.48;;;15.52;;
24337;SDS011;12457;50.832;4.346;2024-01-15T04:30:04;33.00;;;16.25;;
24337;SDS011;12457;50.832;4.346;2024-01-15T04:32:30;33.28;;;16.45;;
24337;SDS011;12457;50.832;4.346;2024-01-15T04:34:56;29.13;;;15.48;;
24337;SDS011;12457;50.832;4.346;2024-01-15T04:37:22;32.38;;;15.52;;
24337;SDS011;12457;50.832;4.346;2024-01-15T04:39:48;32.45;;;16.13;;
24337;SDS011;12457;50.832;4.346;2024-01-15T04:42:17;30.65;;;15.15;;
24337;SDS011;12457;50.832;4.346;2024-01-15T04:44:43;28.52;;;14.10;;
24337;SDS011;12457;50.832;4.346;2024-01-15T04:47:09;25.80;;;14.00;;
24337;SDS011;12457;50.832;4.346;2024-01-15T04:49:35;27.67;;;13.45;;
24337;SDS011;12457;50.832;4.346;2024-01-15T04:52:13;25.52;;;13.55;;
24337;SDS011;12457;50.832;4.346;2024-01-15T04:54:42;29.45;;;12.68;;
24337;SDS011;12457;50.832;4.346;2024-01-15T04:57:08;24.58;;;12.65;;
24337;SDS011;12457;50.832;4.346;2024-01-15T04:59:34;19.67;;;11.18;;
24337;SDS011;12457;50.832;4.346;2024-01-15T05:01:59;19.40;;;10.80;;
24337;SDS011;12457;50.832;4.346;2024-01-15T05:04:25;25.60;;;11.18;;
24337;SDS011;12457;50.832;4.346;2024-01-15T05:07:00;19.42;;;9.13;;
24337;SDS011;12457;50.832;4.346;2024-01-15T05:09:26;12.95;;;7.20;;
24337;SDS011;12457;50.832;4.346;2024-01-15T05:11:51;15.57;;;6.72;;
24337;SDS011;12457;50.832;4.346;2024-01-15T05:14:17;14.82;;;5.93;;
24337;SDS011;12457;50.832;4.346;2024-01-15T05:16:49;8.20;;;5.40;;
24337;SDS011;12457;50.832;4.346;2024-01-15T05:19:16;8.43;;;4.70;;
24337;SDS011;12457;50.832;4.346;2024-01-15T05:21:42;9.68;;;4.80;;
24337;SDS011;12457;50.832;4.346;2024-01-15T05:24:08;8.63;;;4.70;;
24337;SDS011;12457;50.832;4.346;2024-01-15T05:26:35;8.18;;;4.47;;
24337;SDS011;12457;50.832;4.346;2024-01-15T05:29:00;11.90;;;4.45;;
24337;SDS011;12457;50.832;4.346;2024-01-15T05:31:28;7.22;;;4.22;;
24337;SDS011;12457;50.832;4.346;2024-01-15T05:33:54;15.43;;;4.72;;
24337;SDS011;12457;50.832;4.346;2024-01-15T05:36:20;9.38;;;4.65;;
24337;SDS011;12457;50.832;4.346;2024-01-15T05:38:46;8.75;;;4.65;;
24337;SDS011;12457;50.832;4.346;2024-01-15T05:41:13;9.55;;;4.85;;
24337;SDS011;12457;50.832;4.346;2024-01-15T05:43:39;6.47;;;3.58;;
24337;SDS011;12457;50.832;4.346;2024-01-15T05:46:06;7.82;;;4.45;;
24337;SDS011;12457;50.832;4.346;2024-01-15T05:48:31;10.45;;;4.35;;
24337;SDS011;12457;50.832;4.346;2024-01-15T05:50:57;8.45;;;3.42;;
24337;SDS011;12457;50.832;4.346;2024-01-15T05:56:27;9.00;;;2.72;;
24337;SDS011;12457;50.832;4.346;2024-01-15T05:58:54;12.40;;;3.35;;
24337;SDS011;12457;50.832;4.346;2024-01-15T06:01:20;8.35;;;2.50;;
24337;SDS011;12457;50.832;4.346;2024-01-15T06:03:47;4.07;;;2.25;;
24337;SDS011;12457;50.832;4.346;2024-01-15T06:06:12;7.97;;;2.40;;
24337;SDS011;12457;50.832;4.346;2024-01-15T06:08:38;4.53;;;2.17;;
24337;SDS011;12457;50.832;4.346;2024-01-15T06:11:06;6.55;;;2.60;;
24337;SDS011;12457;50.832;4.346;2024-01-15T06:13:32;6.53;;;2.50;;
24337;SDS011;12457;50.832;4.346;2024-01-15T06:15:58;7.00;;;2.58;;
24337;SDS011;12457;50.832;4.346;2024-01-15T06:18:23;7.10;;;2.38;;
24337;SDS011;12457;50.832;4.346;2024-01-15T06:20:49;12.57;;;2.53;;
24337;SDS011;12457;50.832;4.346;2024-01-15T06:23:27;9.10;;;2.70;;
24337;SDS011;12457;50.832;4.346;2024-01-15T06:25:54;6.60;;;3.17;;
24337;SDS011;12457;50.832;4.346;2024-01-15T06:28:23;7.45;;;3.10;;
24337;SDS011;12457;50.832;4.346;2024-01-15T06:30:48;10.13;;;3.38;;
24337;SDS011;12457;50.832;4.346;2024-01-15T06:33:14;11.70;;;3.40;;
24337;SDS011;12457;50.832;4.346;2024-01-15T06:35:41;8.57;;;3.38;;
24337;SDS011;12457;50.832;4.346;2024-01-15T06:38:06;11.70;;;3.88;;
24337;SDS011;12457;50.832;4.346;2024-01-15T06:40:32;13.13;;;4.25;;
24337;SDS011;12457;50.832;4.346;2024-01-15T06:42:58;12.50;;;4.50;;
24337;SDS011;12457;50.832;4.346;2024-01-15T06:45:24;9.13;;;4.70;;
24337;SDS011;12457;50.832;4.346;2024-01-15T06:47:51;7.63;;;5.00;;
24337;SDS011;12457;50.832;4.346;2024-01-15T06:50:16;14.38;;;5.30;;
24337;SDS011;12457;50.832;4.346;2024-01-15T06:55:43;10.57;;;6.75;;
24337;SDS011;12457;50.832;4.346;2024-01-15T06:58:09;12.38;;;6.80;;
24337;SDS011;12457;50.832;4.346;2024-01-15T07:00:35;15.10;;;6.95;;
24337;SDS011;12457;50.832;4.346;2024-01-15T07:03:02;20.52;;;8.07;;
24337;SDS011;12457;50.832;4.346;2024-01-15T07:05:28;16.02;;;8.48;;
24337;SDS011;12457;50.832;4.346;2024-01-15T07:10:45;16.45;;;9.00;;
24337;SDS011;12457;50.832;4.346;2024-01-15T07:13:11;16.65;;;8.52;;
24337;SDS011;12457;50.832;4.346;2024-01-15T07:15:37;15.38;;;8.57;;
24337;SDS011;12457;50.832;4.346;2024-01-15T07:18:02;12.73;;;7.55;;
24337;SDS011;12457;50.832;4.346;2024-01-15T07:20:29;14.75;;;7.53;;
24337;SDS011;12457;50.832;4.346;2024-01-15T07:23:00;17.08;;;7.47;;
24337;SDS011;12457;50.832;4.346;2024-01-15T07:25:27;17.65;;;7.28;;
24337;SDS011;12457;50.832;4.346;2024-01-15T07:27:54;17.23;;;7.15;;
24337;SDS011;12457;50.832;4.346;2024-01-15T07:30:20;13.25;;;7.70;;
24337;SDS011;12457;50.832;4.346;2024-01-15T07:32:47;16.80;;;8.05;;
24337;SDS011;12457;50.832;4.346;2024-01-15T07:35:14;13.88;;;7.57;;
24337;SDS011;12457;50.832;4.346;2024-01-15T07:41:05;14.52;;;9.13;;
24337;SDS011;12457;50.832;4.346;2024-01-15T07:43:30;13.35;;;9.10;;
24337;SDS011;12457;50.832;4.346;2024-01-15T07:45:56;15.60;;;9.68;;
24337;SDS011;12457;50.832;4.346;2024-01-15T07:48:23;16.90;;;9.98;;
24337;SDS011;12457;50.832;4.346;2024-01-15T07:50:52;23.92;;;10.50;;
24337;SDS011;12457;50.832;4.346;2024-01-15T07:53:18;19.77;;;10.50;;
24337;SDS011;12457;50.832;4.346;2024-01-15T07:55:44;20.25;;;10.35;;
24337;SDS011;12457;50.832;4.346;2024-01-15T07:58:11;22.40;;;10.75;;
24337;SDS011;12457;50.832;4.346;2024-01-15T08:00:37;16.23;;;9.93;;
24337;SDS011;12457;50.832;4.346;2024-01-15T08:03:05;23.05;;;10.60;;
24337;SDS011;12457;50.832;4.346;2024-01-15T08:05:31;22.85;;;9.95;;
24337;SDS011;12457;50.832;4.346;2024-01-15T08:07:58;20.67;;;10.80;;
24337;SDS011;12457;50.832;4.346;2024-01-15T08:10:25;27.40;;;10.45;;
24337;SDS011;12457;50.832;4.346;2024-01-15T08:12:51;15.50;;;9.40;;
24337;SDS011;12457;50.832;4.346;2024-01-15T08:15:17;21.77;;;9.95;;
24337;SDS011;12457;50.832;4.346;2024-01-15T08:17:42;16.77;;;9.48;;
24337;SDS011;12457;50.832;4.346;2024-01-15T08:20:08;25.00;;;9.27;;
24337;SDS011;12457;50.832;4.346;2024-01-15T08:22:35;18.05;;;8.95;;
24337;SDS011;12457;50.832;4.346;2024-01-15T08:25:01;17.38;;;7.90;;
24337;SDS011;12457;50.832;4.346;2024-01-15T08:27:26;15.88;;;9.23;;
24337;SDS011;12457;50.832;4.346;2024-01-15T08:29:53;16.48;;;7.38;;
24337;SDS011;12457;50.832;4.346;2024-01-15T08:32:18;14.10;;;7.60;;
24337;SDS011;12457;50.832;4.346;2024-01-15T08:34:44;18.38;;;6.90;;
24337;SDS011;12457;50.832;4.346;2024-01-15T08:37:12;19.02;;;6.75;;
24337;SDS011;12457;50.832;4.346;2024-01-15T08:39:40;13.18;;;5.93;;
24337;SDS011;12457;50.832;4.346;2024-01-15T08:42:05;12.48;;;5.63;;
24337;SDS011;12457;50.832;4.346;2024-01-15T08:44:33;12.40;;;4.90;;
24337;SDS011;12457;50.832;4.346;2024-01-15T08:46:58;19.92;;;5.68;;
24337;SDS011;12457;50.832;4.346;2024-01-15T08:49:26;15.13;;;4.70;;
24337;SDS011;12457;50.832;4.346;2024-01-15T08:51:53;20.92;;;5.07;;
24337;SDS011;12457;50.832;4.346;2024-01-15T08:54:18;15.93;;;5.13;;
24337;SDS011;12457;50.832;4.346;2024-01-15T08:56:46;11.40;;;3.92;;
24337;SDS011;12457;50.832;4.346;2024-01-15T08:59:18;22.15;;;4.18;;
24337;SDS011;12457;50.832;4.346;2024-01-15T09:01:49;15.07;;;4.15;;
24337;SDS011;12457;50.832;4.346;2024-01-15T09:04:15;12.40;;;3.58;;
24337;SDS011;12457;50.832;4.346;2024-01-15T09:06:42;18.38;;;4.50;;
24337;SDS011;12457;50.832;4.346;2024-01-15T09:09:12;11.77;;;3.50;;
24337;SDS011;12457;50.832;4.346;2024-01-15T09:11:40;12.90;;;4.00;;
24337;SDS011;12457;50.832;4.346;2024-01-15T09:14:07;14.77;;;3.47;;
24337;SDS011;12457;50.832;4.346;2024-01-15T09:16:35;10.77;;;2.97;;
24337;SDS011;12457;50.832;4.346;2024-01-15T09:19:01;13.32;;;3.65;;
24337;SDS011;12457;50.832;4.346;2024-01-15T09:21:27;11.68;;;3.25;;
24337;SDS011;12457;50.832;4.346;2024-01-15T09:23:54;14.98;;;4.55;;
24337;SDS011;12457;50.832;4.346;2024-01-15T09:26:21;11.20;;;3.05;;
24337;SDS011;12457;50.832;4.346;2024-01-15T09:28:46;9.23;;;2.70;;
24337;SDS011;12457;50.832;4.346;2024-01-15T09:31:12;10.32;;;3.72;;
24337;SDS011;12457;50.832;4.346;2024-01-15T09:33:38;12.07;;;3.53;;
24337;SDS011;12457;50.832;4.346;2024-01-15T09:36:04;10.65;;;3.60;;
24337;SDS011;12457;50.832;4.346;2024-01-15T09:38:31;12.10;;;3.55;;
24337;SDS011;12457;50.832;4.346;2024-01-15T09:41:00;9.23;;;3.17;;
24337;SDS011;12457;50.832;4.346;2024-01-15T09:43:25;13.00;;;3.75;;
24337;SDS011;12457;50.832;4.346;2024-01-15T09:45:53;12.07;;;3.88;;
24337;SDS011;12457;50.832;4.346;2024-01-15T09:48:19;8.60;;;2.33;;
24337;SDS011;12457;50.832;4.346;2024-01-15T09:50:45;6.40;;;2.90;;
24337;SDS011;12457;50.832;4.346;2024-01-15T09:53:11;13.32;;;3.15;;
24337;SDS011;12457;50.832;4.346;2024-01-15T09:55:52;12.57;;;2.95;;
24337;SDS011;12457;50.832;4.346;2024-01-15T09:58:18;11.55;;;3.55;;
24337;SDS011;12457;50.832;4.346;2024-01-15T10:00:46;8.95;;;3.00;;
24337;SDS011;12457;50.832;4.346;2024-01-15T10:03:15;17.20;;;3.92;;
24337;SDS011;12457;50.832;4.346;2024-01-15T10:05:40;11.20;;;3.50;;
24337;SDS011;12457;50.832;4.346;2024-01-15T10:08:07;12.73;;;2.90;;
24337;SDS011;12457;50.832;4.346;2024-01-15T10:10:33;11.38;;;3.00;;
24337;SDS011;12457;50.832;4.346;2024-01-15T10:13:01;6.45;;;2.97;;
24337;SDS011;12457;50.832;4.346;2024-01-15T10:15:29;10.05;;;2.72;;
24337;SDS011;12457;50.832;4.346;2024-01-15T10:17:58;9.57;;;2.55;;
24337;SDS011;12457;50.832;4.346;2024-01-15T10:20:24;8.32;;;3.20;;
24337;SDS011;12457;50.832;4.346;2024-01-15T10:22:50;13.70;;;3.58;;
24337;SDS011;12457;50.832;4.346;2024-01-15T10:25:19;9.32;;;2.50;;
24337;SDS011;12457;50.832;4.346;2024-01-15T10:27:58;8.47;;;2.63;;
24337;SDS011;12457;50.832;4.346;2024-01-15T10:30:27;9.40;;;2.22;;
24337;SDS011;12457;50.832;4.346;2024-01-15T10:32:59;13.00;;;2.58;;
24337;SDS011;12457;50.832;4.346;2024-01-15T10:35:30;10.13;;;2.05;;
24337;SDS011;12457;50.832;4.346;2024-01-15T10:37:57;9.80;;;2.92;;
24337;SDS011;12457;50.832;4.346;2024-01-15T10:46:48;13.65;;;3.50;;
24337;SDS011;12457;50.832;4.346;2024-01-15T10:49:15;9.18;;;2.33;;
24337;SDS011;12457;50.832;4.346;2024-01-15T10:51:41;9.98;;;2.65;;
24337;SDS011;12457;50.832;4.346;2024-01-15T10:54:09;5.55;;;2.03;;
24337;SDS011;12457;50.832;4.346;2024-01-15T10:56:36;12.27;;;2.80;;
24337;SDS011;12457;50.832;4.346;2024-01-15T10:59:03;11.18;;;2.40;;
24337;SDS011;12457;50.832;4.346;2024-01-15T11:01:32;11.13;;;2.30;;
24337;SDS011;12457;50.832;4.346;2024-01-15T11:03:59;7.93;;;2.83;;
24337;SDS011;12457;50.832;4.346;2024-01-15T11:06:25;11.60;;;3.08;;
24337;SDS011;12457;50.832;4.346;2024-01-15T11:08:54;8.98;;;2.50;;
24337;SDS011;12457;50.832;4.346;2024-01-15T11:11:20;13.77;;;2.83;;
24337;SDS011;12457;50.832;4.346;2024-01-15T11:13:47;14.07;;;2.80;;
24337;SDS011;12457;50.832;4.346;2024-01-15T11:16:15;12.25;;;3.88;;
24337;SDS011;12457;50.832;4.346;2024-01-15T11:18:42;7.80;;;2.53;;
24337;SDS011;12457;50.832;4.346;2024-01-15T11:21:29;13.70;;;3.10;;
24337;SDS011;12457;50.832;4.346;2024-01-15T11:24:03;8.50;;;2.17;;
24337;SDS011;12457;50.832;4.346;2024-01-15T11:32:00;15.80;;;2.50;;
24337;SDS011;12457;50.832;4.346;2024-01-15T11:37:19;8.60;;;2.28;;
24337;SDS011;12457;50.832;4.346;2024-01-15T11:39:46;11.93;;;2.08;;
24337;SDS011;12457;50.832;4.346;2024-01-15T11:42:12;10.32;;;2.90;;
24337;SDS011;12457;50.832;4.346;2024-01-15T11:44:40;11.10;;;2.35;;
24337;SDS011;12457;50.832;4.346;2024-01-15T11:47:07;5.93;;;2.10;;
24337;SDS011;12457;50.832;4.346;2024-01-15T11:52:21;9.38;;;2.15;;
24337;SDS011;12457;50.832;4.346;2024-01-15T12:00:16;7.90;;;2.08;;
24337;SDS011;12457;50.832;4.346;2024-01-15T12:02:43;9.38;;;2.13;;
24337;SDS011;12457;50.832;4.346;2024-01-15T12:05:11;10.35;;;2.30;;
24337;SDS011;12457;50.832;4.346;2024-01-15T12:07:41;11.88;;;2.20;;
24337;SDS011;12457;50.832;4.346;2024-01-15T12:10:18;6.57;;;2.10;;
24337;SDS011;12457;50.832;4.346;2024-01-15T12:12:58;6.88;;;2.25;;
24337;SDS011;12457;50.832;4.346;2024-01-15T12:15:30;8.48;;;1.85;;
24337;SDS011;12457;50.832;4.346;2024-01-15T12:17:57;14.40;;;1.98;;
24337;SDS011;12457;50.832;4.346;2024-01-15T12:20:29;13.82;;;2.60;;
24337;SDS011;12457;50.832;4.346;2024-01-15T12:22:57;8.55;;;2.25;;
24337;SDS011;12457;50.832;4.346;2024-01-15T12:25:23;10.15;;;2.40;;
24337;SDS011;12457;50.832;4.346;2024-01-15T12:27:52;10.00;;;2.42;;
24337;SDS011;12457;50.832;4.346;2024-01-15T12:30:18;6.68;;;1.80;;
24337;SDS011;12457;50.832;4.346;2024-01-15T12:32:47;11.45;;;2.40;;
24337;SDS011;12457;50.832;4.346;2024-01-15T12:35:15;12.30;;;1.90;;
24337;SDS011;12457;50.832;4.346;2024-01-15T12:37:42;11.90;;;2.58;;
24337;SDS011;12457;50.832;4.346;2024-01-15T12:40:21;10.32;;;1.70;;
24337;SDS011;12457;50.832;4.346;2024-01-15T12:42:47;6.25;;;1.67;;
24337;SDS011;12457;50.832;4.346;2024-01-15T12:45:13;25.23;;;6.63;;
24337;SDS011;12457;50.832;4.346;2024-01-15T12:47:39;7.13;;;2.20;;
24337;SDS011;12457;50.832;4.346;2024-01-15T12:50:09;6.65;;;2.38;;
24337;SDS011;12457;50.832;4.346;2024-01-15T12:52:35;8.13;;;2.28;;
24337;SDS011;12457;50.832;4.346;2024-01-15T12:58:08;9.07;;;1.90;;
24337;SDS011;12457;50.832;4.346;2024-01-15T13:00:34;7.38;;;1.90;;
24337;SDS011;12457;50.832;4.346;2024-01-15T13:03:00;9.90;;;1.90;;
24337;SDS011;12457;50.832;4.346;2024-01-15T13:05:29;8.05;;;2.00;;
24337;SDS011;12457;50.832;4.346;2024-01-15T13:07:57;11.95;;;1.80;;
24337;SDS011;12457;50.832;4.346;2024-01-15T13:10:24;9.00;;;2.05;;
24337;SDS011;12457;50.832;4.346;2024-01-15T13:12:50;9.50;;;2.25;;
24337;SDS011;12457;50.832;4.346;2024-01-15T13:15:16;12.35;;;2.40;;
24337;SDS011;12457;50.832;4.346;2024-01-15T13:17:42;8.27;;;1.83;;
24337;SDS011;12457;50.832;4.346;2024-01-15T13:20:10;8.00;;;3.08;;
24337;SDS011;12457;50.832;4.346;2024-01-15T13:22:37;8.00;;;2.58;;
24337;SDS011;12457;50.832;4.346;2024-01-15T13:25:14;10.10;;;2.50;;
24337;SDS011;12457;50.832;4.346;2024-01-15T13:27:41;11.38;;;2.63;;
24337;SDS011;12457;50.832;4.346;2024-01-15T13:30:06;12.80;;;2.72;;
24337;SDS011;12457;50.832;4.346;2024-01-15T13:32:33;6.55;;;2.75;;
24337;SDS011;12457;50.832;4.346;2024-01-15T13:35:02;19.52;;;3.50;;
24337;SDS011;12457;50.832;4.346;2024-01-15T13:37:30;14.07;;;2.90;;
24337;SDS011;12457;50.832;4.346;2024-01-15T13:39:57;11.38;;;2.58;;
24337;SDS011;12457;50.832;4.346;2024-01-15T13:42:35;11.70;;;2.15;;
24337;SDS011;12457;50.832;4.346;2024-01-15T13:45:05;15.38;;;2.67;;
24337;SDS011;12457;50.832;4.346;2024-01-15T13:47:31;8.73;;;2.65;;
24337;SDS011;12457;50.832;4.346;2024-01-15T13:49:57;10.75;;;2.30;;
24337;SDS011;12457;50.832;4.346;2024-01-15T13:52:25;16.88;;;2.42;;
24337;SDS011;12457;50.832;4.346;2024-01-15T13:54:53;9.02;;;2.35;;
24337;SDS011;12457;50.832;4.346;2024-01-15T13:57:20;14.30;;;2.65;;
24337;SDS011;12457;50.832;4.346;2024-01-15T13:59:45;11.45;;;2.60;;
24337;SDS011;12457;50.832;4.346;2024-01-15T14:02:11;10.38;;;2.30;;
24337;SDS011;12457;50.832;4.346;2024-01-15T14:04:37;22.58;;;3.28;;
24337;SDS011;12457;50.832;4.346;2024-01-15T14:07:03;8.55;;;2.65;;
24337;SDS011;12457;50.832;4.346;2024-01-15T14:09:29;8.50;;;2.10;;
24337;SDS011;12457;50.832;4.346;2024-01-15T14:15:01;14.10;;;3.50;;
24337;SDS011;12457;50.832;4.346;2024-01-15T14:17:27;15.55;;;2.58;;
24337;SDS011;12457;50.832;4.346;2024-01-15T14:19:53;6.68;;;2.60;;
24337;SDS011;12457;50.832;4.346;2024-01-15T14:22:19;13.98;;;2.72;;
24337;SDS011;12457;50.832;4.346;2024-01-15T14:24:46;20.30;;;3.38;;
24337;SDS011;12457;50.832;4.346;2024-01-15T14:27:13;7.60;;;1.92;;
24337;SDS011;12457;50.832;4.346;2024-01-15T14:29:38;11.73;;;2.45;;
24337;SDS011;12457;50.832;4.346;2024-01-15T14:32:05;11.45;;;2.63;;
24337;SDS011;12457;50.832;4.346;2024-01-15T14:34:31;9.25;;;2.20;;
24337;SDS011;12457;50.832;4.346;2024-01-15T14:36:57;9.98;;;2.30;;
24337;SDS011;12457;50.832;4.346;2024-01-15T14:39:23;14.05;;;2.72;;
24337;SDS011;12457;50.832;4.346;2024-01-15T14:44:47;3.90;;;1.85;;
24337;SDS011;12457;50.832;4.346;2024-01-15T14:47:13;6.97;;;2.30;;
24337;SDS011;12457;50.832;4.346;2024-01-15T14:49:38;7.82;;;2.53;;
24337;SDS011;12457;50.832;4.346;2024-01-15T14:52:04;8.30;;;2.40;;
24337;SDS011;12457;50.832;4.346;2024-01-15T14:54:31;8.45;;;1.90;;
24337;SDS011;12457;50.832;4.346;2024-01-15T14:57:02;12.40;;;2.05;;
24337;SDS011;12457;50.832;4.346;2024-01-15T14:59:28;10.48;;;1.83;;
24337;SDS011;12457;50.832;4.346;2024-01-15T15:01:54;3.85;;;1.80;;
24337;SDS011;12457;50.832;4.346;2024-01-15T15:04:22;6.90;;;2.20;;
24337;SDS011;12457;50.832;4.346;2024-01-15T15:06:47;8.43;;;2.42;;
24337;SDS011;12457;50.832;4.346;2024-01-15T15:09:13;7.72;;;2.95;;
24337;SDS011;12457;50.832;4.346;2024-01-15T15:11:39;4.35;;;1.95;;
24337;SDS011;12457;50.832;4.346;2024-01-15T15:14:05;5.82;;;2.42;;
24337;SDS011;12457;50.832;4.346;2024-01-15T15:16:30;3.67;;;1.90;;
24337;SDS011;12457;50.832;4.346;2024-01-15T15:18:56;8.65;;;2.60;;
24337;SDS011;12457;50.832;4.346;2024-01-15T15:21:23;7.25;;;2.53;;
24337;SDS011;12457;50.832;4.346;2024-01-15T15:23:48;8.68;;;2.53;;
24337;SDS011;12457;50.832;4.346;2024-01-15T15:26:26;7.90;;;2.13;;
24337;SDS011;12457;50.832;4.346;2024-01-15T15:28:53;10.63;;;2.25;;
24337;SDS011;12457;50.832;4.346;2024-01-15T15:31:19;8.00;;;2.47;;